Hopkins, Minnesota
Current Conditions -  °F | °C
As of 12:53 AM on Thursday 23 Oct 2014 (Local Time) from KFCM Reporting Station
Overcast Overcast  
Wind Chill: 56°   Ceiling: 2800
Heat Index: 56°   Visibility: 10mi
Dew Point: 43°   Wind: 9mph
Humidity: 62%   Direction: 190°S
Pressure: 30"   Gusts: NA
Location:  44.92°N, 93.41°W
Report Text: KFCM 230553Z AUTO 19008KT 10SM OVC028 13/06 A3000 RMK AO2 RAB03E28 SLP159 P0000 60000 T01330061 10144 20128 401720044 58013
Loading
Personal Weather Stations






























Interactive Weather Map
Tropical Storm Tracking
New forecast layout! Learn more

10-Day Weather Forecast

Advertisements
Track Severe Weather on mobile